Time;durP1;ratioP1;P1;durP2;ratioP2;P2;SDS_P1;SDS_P2;PMS_P1;PMS_P2;Temp;Humidity;BMP_temperature;BMP_pressure;BME280_temperature;BME280_humidity;BME280_pressure;Samples;Min_cycle;Max_cycle;Signal;HPM_P1;HPM_P2
2022/10/20 00:00:08;;;;;;;40.03;18.77;;;12.30;99.90;;;;;;4197487;28;20187;-67
2022/10/20 00:02:09;;;;;;;38.13;18.33;;;12.30;99.90;;;;;;4197063;28;20206;-67
2022/10/20 00:04:09;;;;;;;37.87;18.03;;;12.10;99.90;;;;;;4197578;28;20547;-67
2022/10/20 00:06:20;;;;;;;40.53;18.83;;;12.00;99.90;;;;;;4197638;28;20196;-67
2022/10/20 00:08:20;;;;;;;50.80;22.10;;;12.20;99.90;;;;;;4197263;28;20194;-67
2022/10/20 00:10:21;;;;;;;39.53;19.83;;;12.20;99.90;;;;;;4196685;28;20183;-67
2022/10/20 00:12:21;;;;;;;40.10;18.53;;;12.10;99.90;;;;;;4197151;28;20976;-67
2022/10/20 00:14:22;;;;;;;34.33;17.07;;;12.10;99.90;;;;;;4197326;28;20179;-67
2022/10/20 00:16:24;;;;;;;36.90;18.30;;;12.00;99.90;;;;;;4197265;28;20208;-67
2022/10/20 00:18:25;;;;;;;40.33;18.90;;;11.90;99.90;;;;;;4197493;28;20207;-68
2022/10/20 00:20:26;;;;;;;42.23;18.70;;;12.00;99.90;;;;;;4196759;28;20190;-67
2022/10/20 00:22:26;;;;;;;45.40;21.30;;;11.90;99.90;;;;;;4197573;28;20713;-67
2022/10/20 00:24:27;;;;;;;38.73;19.17;;;11.90;99.90;;;;;;4197325;28;20191;-67
2022/10/20 00:26:29;;;;;;;49.73;19.90;;;11.90;99.90;;;;;;4197958;28;20198;-67
2022/10/20 00:28:29;;;;;;;42.30;19.57;;;11.80;99.90;;;;;;4197263;28;20182;-67
2022/10/20 00:30:30;;;;;;;50.83;21.87;;;11.70;99.90;;;;;;4196475;28;20188;-67
2022/10/20 00:32:31;;;;;;;40.17;18.77;;;11.90;99.90;;;;;;4196981;28;20207;-67
2022/10/20 00:34:32;;;;;;;39.17;18.73;;;11.90;99.90;;;;;;4197000;28;20207;-67
2022/10/20 00:36:32;;;;;;;42.63;20.73;;;11.90;99.90;;;;;;4197055;28;20238;-67
2022/10/20 00:38:34;;;;;;;47.00;20.00;;;11.80;99.90;;;;;;4196967;28;20714;-67
2022/10/20 00:40:35;;;;;;;44.33;21.57;;;11.90;99.90;;;;;;4193469;28;20183;-67
2022/10/20 00:42:36;;;;;;;43.33;19.20;;;12.00;99.90;;;;;;4180758;28;20188;-67
2022/10/20 00:44:55;;;;;;;43.43;21.30;;;12.00;99.90;;;;;;4180752;28;20180;-67
2022/10/20 00:46:56;;;;;;;46.13;20.60;;;12.00;99.90;;;;;;4180630;28;20196;-67
2022/10/20 00:49:01;;;;;;;44.63;19.50;;;12.00;99.90;;;;;;4180316;28;20241;-67
2022/10/20 00:51:02;;;;;;;61.57;27.07;;;11.90;99.90;;;;;;4179867;28;20237;-68
2022/10/20 00:53:04;;;;;;;49.67;21.73;;;11.80;99.90;;;;;;4184361;28;20373;-67
2022/10/20 00:55:08;;;;;;;52.10;21.87;;;11.70;99.90;;;;;;4197064;28;20227;-67
2022/10/20 00:57:08;;;;;;;46.87;20.10;;;11.80;99.90;;;;;;4196624;28;20576;-67
2022/10/20 00:59:12;;;;;;;50.70;19.17;;;11.80;99.90;;;;;;4196825;28;20187;-67
2022/10/20 01:01:13;;;;;;;47.87;21.90;;;11.90;99.90;;;;;;4196028;28;20670;-67
2022/10/20 01:03:19;;;;;;;58.13;24.47;;;11.90;99.90;;;;;;4196790;28;20207;-67
2022/10/20 01:05:19;;;;;;;53.83;22.57;;;11.80;99.90;;;;;;4195880;28;20654;-67
2022/10/20 01:07:20;;;;;;;41.97;20.40;;;11.80;99.90;;;;;;4196097;28;20235;-67
2022/10/20 01:09:21;;;;;;;49.03;22.03;;;11.80;99.90;;;;;;4196527;28;20211;-67
2022/10/20 01:11:46;;;;;;;47.73;20.10;;;11.70;99.90;;;;;;4195952;28;20178;-67
2022/10/20 01:14:13;;;;;;;51.80;22.80;;;11.80;99.90;;;;;;4196219;28;20195;-67
2022/10/20 01:16:46;;;;;;;43.93;20.27;;;11.80;99.90;;;;;;4196669;28;20210;-67
2022/10/20 01:18:52;;;;;;;50.07;21.10;;;11.90;99.90;;;;;;4195546;28;20564;-67
2022/10/20 01:21:12;;;;;;;43.47;20.97;;;11.90;99.90;;;;;;4195750;28;20258;-67
2022/10/20 01:23:50;;;;;;;48.77;20.87;;;11.80;99.90;;;;;;4196207;28;20657;-67
2022/10/20 01:26:06;;;;;;;50.83;22.40;;;11.90;99.90;;;;;;4196318;28;20195;-67
2022/10/20 01:28:41;;;;;;;51.67;20.70;;;12.00;99.90;;;;;;4196514;28;20245;-67
2022/10/20 01:30:51;;;;;;;47.60;21.17;;;11.90;99.90;;;;;;4195347;28;20653;-67
2022/10/20 01:32:52;;;;;;;46.00;20.27;;;11.90;99.90;;;;;;4195955;28;20210;-67
2022/10/20 01:35:03;;;;;;;45.20;20.77;;;11.90;99.90;;;;;;4196121;28;20184;-67
2022/10/20 01:37:25;;;;;;;54.37;22.57;;;11.90;99.90;;;;;;4195907;28;20203;-67
2022/10/20 01:39:35;;;;;;;44.87;19.60;;;11.90;99.90;;;;;;4196023;28;20199;-67
2022/10/20 01:41:43;;;;;;;54.47;23.73;;;11.90;99.90;;;;;;4193937;28;20394;-67
2022/10/20 01:43:45;;;;;;;43.63;20.77;;;11.80;99.90;;;;;;4195959;28;20187;-67
2022/10/20 01:45:49;;;;;;;43.63;19.57;;;12.00;99.90;;;;;;4195789;28;20226;-67
2022/10/20 01:47:50;;;;;;;46.43;20.03;;;12.00;99.90;;;;;;4196140;28;20176;-67
2022/10/20 01:49:51;;;;;;;46.43;21.90;;;12.00;99.90;;;;;;4195994;28;20263;-67
2022/10/20 01:51:52;;;;;;;42.67;20.23;;;12.10;99.90;;;;;;4195239;28;20187;-67
2022/10/20 01:53:53;;;;;;;37.47;19.00;;;12.10;99.90;;;;;;4195828;28;20650;-68
2022/10/20 01:55:56;;;;;;;42.47;20.33;;;12.00;99.90;;;;;;4195801;28;20192;-67
2022/10/20 01:58:05;;;;;;;40.03;19.30;;;12.00;99.90;;;;;;4195580;28;20221;-67
2022/10/20 02:00:10;;;;;;;40.57;19.27;;;12.10;99.90;;;;;;4195718;28;20647;-68
2022/10/20 02:02:43;;;;;;;34.60;18.20;;;12.10;99.90;;;;;;4195576;28;20666;-67
2022/10/20 02:05:11;;;;;;;37.03;18.33;;;12.00;99.90;;;;;;4194347;28;20196;-67
2022/10/20 02:07:22;;;;;;;54.83;19.33;;;11.90;99.90;;;;;;4195536;28;20238;-67
2022/10/20 02:09:37;;;;;;;36.60;18.43;;;11.90;99.90;;;;;;4195595;28;20187;-67
2022/10/20 02:11:46;;;;;;;36.00;17.47;;;11.90;99.90;;;;;;4194046;28;20186;-67
2022/10/20 02:13:48;;;;;;;39.83;18.50;;;12.10;99.90;;;;;;4195425;28;20198;-68
2022/10/20 02:15:55;;;;;;;37.40;18.00;;;12.10;99.90;;;;;;4195578;28;20199;-67
2022/10/20 02:18:02;;;;;;;36.10;17.77;;;12.00;99.90;;;;;;4194932;28;20223;-67
2022/10/20 02:20:05;;;;;;;34.23;17.70;;;12.00;99.90;;;;;;4195427;28;20209;-67
2022/10/20 02:22:08;;;;;;;33.00;17.40;;;11.90;99.90;;;;;;4195014;28;20191;-67
2022/10/20 02:24:11;;;;;;;37.60;18.93;;;11.90;99.90;;;;;;4195457;28;20187;-68
2022/10/20 02:26:18;;;;;;;30.70;16.20;;;11.90;99.90;;;;;;4195426;28;20681;-67
2022/10/20 02:28:21;;;;;;;34.17;17.07;;;12.10;99.90;;;;;;4195538;28;20277;-67
2022/10/20 02:30:21;;;;;;;32.83;17.10;;;12.20;99.90;;;;;;4194600;28;20194;-67
2022/10/20 02:32:24;;;;;;;33.27;16.87;;;12.20;99.90;;;;;;4195400;28;20606;-68
2022/10/20 02:34:25;;;;;;;31.47;17.03;;;12.10;99.90;;;;;;4195378;28;20200;-67
2022/10/20 02:36:28;;;;;;;34.07;16.63;;;12.00;99.90;;;;;;4195230;28;20285;-67
2022/10/20 02:38:28;;;;;;;36.30;17.33;;;12.10;99.90;;;;;;4195251;28;20590;-67
2022/10/20 02:40:29;;;;;;;30.43;16.67;;;12.10;99.90;;;;;;4194675;28;20183;-67
2022/10/20 02:42:30;;;;;;;36.17;18.33;;;12.00;99.90;;;;;;4188739;28;20187;-67
2022/10/20 02:44:31;;;;;;;36.83;18.33;;;12.00;99.90;;;;;;4178946;28;20188;-67
2022/10/20 02:46:31;;;;;;;34.43;17.80;;;12.10;99.90;;;;;;4178616;28;20254;-68
2022/10/20 02:48:32;;;;;;;38.40;18.70;;;12.10;99.90;;;;;;4178566;28;20537;-68
2022/10/20 02:50:32;;;;;;;33.87;17.03;;;12.00;99.90;;;;;;4178052;28;20567;-67
2022/10/20 02:52:33;;;;;;;29.50;17.10;;;12.00;99.90;;;;;;4187305;28;20713;-67
2022/10/20 02:54:33;;;;;;;38.90;19.37;;;12.00;99.90;;;;;;4186021;28;20188;-68
2022/10/20 02:56:34;;;;;;;30.87;16.47;;;12.10;99.90;;;;;;4194814;28;20302;-67
2022/10/20 02:58:35;;;;;;;34.17;17.13;;;12.00;99.90;;;;;;4195168;28;20207;-67
2022/10/20 03:00:35;;;;;;;41.47;19.80;;;12.10;99.90;;;;;;4194818;28;20187;-68
2022/10/20 03:02:36;;;;;;;43.53;20.27;;;12.10;99.90;;;;;;4195147;28;20217;-68
2022/10/20 03:04:36;;;;;;;36.83;20.23;;;12.00;99.90;;;;;;4194990;28;20176;-67
2022/10/20 03:06:37;;;;;;;33.87;18.90;;;11.90;99.90;;;;;;4194951;28;20199;-67
2022/10/20 03:08:38;;;;;;;36.73;19.73;;;11.90;99.90;;;;;;4194859;28;20191;-67
2022/10/20 03:10:40;;;;;;;32.50;17.53;;;12.00;99.90;;;;;;4193025;28;20241;-67
2022/10/20 03:12:40;;;;;;;32.57;17.03;;;12.00;99.90;;;;;;4194906;28;20290;-68
2022/10/20 03:14:41;;;;;;;35.43;17.10;;;12.00;99.90;;;;;;4195063;28;20184;-68
2022/10/20 03:16:42;;;;;;;37.93;18.97;;;12.10;99.90;;;;;;4194906;28;20825;-68
2022/10/20 03:18:42;;;;;;;37.63;19.27;;;12.10;99.90;;;;;;4194946;28;20275;-67
2022/10/20 03:20:43;;;;;;;33.57;17.13;;;12.10;99.90;;;;;;4194207;28;20198;-67
2022/10/20 03:22:44;;;;;;;37.07;18.53;;;12.10;99.90;;;;;;4195042;28;20639;-68
2022/10/20 03:24:44;;;;;;;34.40;16.83;;;12.10;99.90;;;;;;4194763;28;20570;-68
2022/10/20 03:26:45;;;;;;;30.77;16.87;;;12.20;99.90;;;;;;4195312;28;20671;-68
2022/10/20 03:28:46;;;;;;;33.63;17.40;;;12.20;99.90;;;;;;4194905;28;20183;-68
2022/10/20 03:30:47;;;;;;;33.93;17.83;;;12.20;99.90;;;;;;4197668;28;20191;-67
2022/10/20 03:32:47;;;;;;;32.33;16.73;;;12.20;99.90;;;;;;4198368;28;20221;-68
2022/10/20 03:34:48;;;;;;;30.30;16.90;;;12.10;99.90;;;;;;4198258;28;20180;-68
2022/10/20 03:36:49;;;;;;;32.53;16.97;;;11.90;99.90;;;;;;4198085;28;20271;-67
2022/10/20 03:38:49;;;;;;;37.60;18.83;;;11.90;99.90;;;;;;4198148;28;20215;-68
2022/10/20 03:40:50;;;;;;;35.50;17.97;;;11.90;99.90;;;;;;4197512;28;20282;-67
2022/10/20 03:42:51;;;;;;;38.23;19.37;;;11.90;99.90;;;;;;4198175;28;20939;-68
2022/10/20 03:44:51;;;;;;;37.03;17.93;;;11.90;99.90;;;;;;4196849;28;20183;-68
2022/10/20 03:46:52;;;;;;;35.23;17.33;;;11.90;99.90;;;;;;4197936;28;20203;-68
2022/10/20 03:48:52;;;;;;;38.53;18.73;;;11.90;99.90;;;;;;4198049;28;20184;-67
2022/10/20 03:50:53;;;;;;;33.47;17.93;;;11.90;99.90;;;;;;4197629;28;20187;-67
2022/10/20 03:52:53;;;;;;;37.93;18.83;;;11.80;99.90;;;;;;4197823;28;20270;-68
2022/10/20 03:54:54;;;;;;;34.70;18.33;;;11.80;99.90;;;;;;4197854;28;20187;-67
2022/10/20 03:56:54;;;;;;;36.43;17.53;;;11.90;99.90;;;;;;4197531;28;20203;-68
2022/10/20 03:58:55;;;;;;;34.37;18.03;;;11.90;99.90;;;;;;4197646;28;20600;-68
2022/10/20 04:00:56;;;;;;;32.23;16.20;;;12.00;99.90;;;;;;4196964;28;20278;-68
2022/10/20 04:02:57;;;;;;;30.67;16.67;;;12.00;99.90;;;;;;4197510;28;20187;-67
2022/10/20 04:04:57;;;;;;;35.77;18.03;;;12.00;99.90;;;;;;4197830;28;20591;-67
2022/10/20 04:06:58;;;;;;;31.10;16.63;;;12.00;99.90;;;;;;4197544;28;20238;-68
2022/10/20 04:08:58;;;;;;;33.37;18.70;;;12.00;99.90;;;;;;4197604;28;20187;-68
2022/10/20 04:10:59;;;;;;;27.47;15.00;;;12.00;99.90;;;;;;4197004;28;20187;-68
2022/10/20 04:13:01;;;;;;;28.17;15.77;;;12.00;99.90;;;;;;4197443;28;20261;-68
2022/10/20 04:15:02;;;;;;;35.30;18.37;;;11.90;99.90;;;;;;4197547;28;20250;-68
2022/10/20 04:17:03;;;;;;;34.20;17.93;;;11.90;99.90;;;;;;4197834;28;20739;-67
2022/10/20 04:19:03;;;;;;;31.43;16.47;;;12.00;99.90;;;;;;4198232;28;20213;-67
2022/10/20 04:21:04;;;;;;;29.90;15.23;;;11.90;99.90;;;;;;4197700;28;20179;-67
2022/10/20 04:23:04;;;;;;;27.27;15.57;;;12.00;99.90;;;;;;4197513;28;20187;-68
2022/10/20 04:25:06;;;;;;;28.63;16.13;;;12.00;99.90;;;;;;4197573;28;20194;-68
2022/10/20 04:27:07;;;;;;;30.60;16.93;;;12.00;99.90;;;;;;4197705;28;20264;-68
2022/10/20 04:29:07;;;;;;;27.93;15.57;;;12.00;99.90;;;;;;4197890;28;20279;-67
2022/10/20 04:31:08;;;;;;;30.57;16.50;;;12.00;99.90;;;;;;4196875;28;20642;-67
2022/10/20 04:33:09;;;;;;;32.47;19.10;;;12.00;99.90;;;;;;4197425;28;20176;-68
2022/10/20 04:35:10;;;;;;;33.83;16.50;;;12.00;99.90;;;;;;4197121;28;20230;-68
2022/10/20 04:37:10;;;;;;;31.27;15.10;;;12.00;99.90;;;;;;4196898;28;20681;-68
2022/10/20 04:39:11;;;;;;;28.63;16.37;;;12.00;99.90;;;;;;4197194;28;20607;-68
2022/10/20 04:41:11;;;;;;;27.70;15.90;;;12.00;99.90;;;;;;4196276;28;20577;-68
2022/10/20 04:43:12;;;;;;;30.93;17.17;;;11.90;99.90;;;;;;4196961;28;20176;-68
2022/10/20 04:45:13;;;;;;;29.83;15.50;;;11.80;99.90;;;;;;4184856;28;20218;-68
2022/10/20 04:47:13;;;;;;;32.83;17.20;;;11.80;99.90;;;;;;4180142;28;20212;-68
2022/10/20 04:49:14;;;;;;;35.87;17.97;;;11.90;99.90;;;;;;4180275;28;20781;-68
2022/10/20 04:51:15;;;;;;;31.70;16.67;;;11.70;99.90;;;;;;4179842;28;20180;-68
2022/10/20 04:53:16;;;;;;;37.47;18.73;;;11.80;99.90;;;;;;4180198;28;20309;-68
2022/10/20 04:55:16;;;;;;;32.37;16.30;;;11.70;99.90;;;;;;4187555;28;20183;-67
2022/10/20 04:57:17;;;;;;;36.40;17.37;;;11.80;99.90;;;;;;4196597;28;20258;-68
2022/10/20 04:59:17;;;;;;;41.47;18.80;;;11.70;99.90;;;;;;4196804;28;20180;-68
2022/10/20 05:01:19;;;;;;;38.63;19.57;;;11.70;99.90;;;;;;4196047;28;20257;-67
2022/10/20 05:03:20;;;;;;;36.90;19.60;;;11.80;99.90;;;;;;4197007;28;20176;-67
2022/10/20 05:05:20;;;;;;;38.27;18.17;;;11.70;99.90;;;;;;4183593;28;20195;-68
2022/10/20 05:07:21;;;;;;;29.60;16.17;;;11.80;99.90;;;;;;4185338;28;20216;-68
2022/10/20 05:09:21;;;;;;;36.40;17.50;;;11.70;99.90;;;;;;4196771;28;20176;-68
2022/10/20 05:11:24;;;;;;;34.47;18.23;;;11.70;99.90;;;;;;4194938;28;20635;-68
2022/10/20 05:13:24;;;;;;;33.13;17.10;;;11.70;99.90;;;;;;4195360;28;20195;-68
2022/10/20 05:15:25;;;;;;;33.73;17.17;;;11.80;99.90;;;;;;4196749;28;20180;-68
2022/10/20 05:17:28;;;;;;;30.20;15.53;;;11.80;99.90;;;;;;4196465;28;20203;-68
2022/10/20 05:19:29;;;;;;;29.87;15.43;;;11.80;99.90;;;;;;4196786;28;21056;-68
2022/10/20 05:21:31;;;;;;;30.90;16.33;;;11.90;99.90;;;;;;4196013;28;20207;-68
2022/10/20 05:23:31;;;;;;;35.03;17.10;;;11.90;99.90;;;;;;4196987;28;20183;-68
2022/10/20 05:25:34;;;;;;;27.73;15.33;;;11.90;99.90;;;;;;4196518;28;20211;-68
2022/10/20 05:27:35;;;;;;;35.67;16.70;;;11.90;99.90;;;;;;4196507;28;20257;-67
2022/10/20 05:29:35;;;;;;;31.53;16.43;;;11.90;99.90;;;;;;4196331;28;20550;-67
2022/10/20 05:31:45;;;;;;;31.20;15.47;;;12.00;99.90;;;;;;4195717;28;20525;-67
2022/10/20 05:33:50;;;;;;;31.07;15.43;;;12.00;99.90;;;;;;4196212;28;20190;-67
2022/10/20 05:35:50;;;;;;;25.37;14.60;;;12.00;99.90;;;;;;4194994;28;20294;-67
2022/10/20 05:37:51;;;;;;;30.27;15.83;;;12.00;99.90;;;;;;4196003;28;20215;-67
2022/10/20 05:39:51;;;;;;;33.10;16.33;;;12.10;99.90;;;;;;4196432;28;20245;-67
2022/10/20 05:41:52;;;;;;;31.20;17.40;;;12.00;99.90;;;;;;4195427;28;20179;-67
2022/10/20 05:43:57;;;;;;;27.40;14.33;;;12.00;99.90;;;;;;4195938;28;20241;-67
2022/10/20 05:45:58;;;;;;;27.80;14.23;;;12.00;99.90;;;;;;4196239;28;20562;-67
2022/10/20 05:47:58;;;;;;;28.27;14.73;;;12.00;99.90;;;;;;4195937;28;20186;-67
2022/10/20 05:49:59;;;;;;;29.10;15.60;;;12.00;99.90;;;;;;4195946;28;20267;-67
2022/10/20 05:51:59;;;;;;;28.30;15.97;;;11.90;99.90;;;;;;4194560;28;20183;-67
2022/10/20 05:54:00;;;;;;;27.87;14.23;;;11.90;99.90;;;;;;4195705;28;20183;-67
2022/10/20 05:56:03;;;;;;;31.87;15.30;;;11.90;99.90;;;;;;4195779;28;20215;-67
2022/10/20 05:58:03;;;;;;;28.13;14.63;;;11.90;99.90;;;;;;4195900;28;20214;-67
2022/10/20 06:00:04;;;;;;;28.00;14.27;;;11.90;99.90;;;;;;4195774;28;20179;-67
2022/10/20 06:02:05;;;;;;;26.03;14.23;;;11.90;99.90;;;;;;4195176;28;20706;-67
2022/10/20 06:04:07;;;;;;;25.33;13.83;;;12.00;99.90;;;;;;4195874;28;20188;-67
2022/10/20 06:06:08;;;;;;;29.03;14.17;;;11.90;99.90;;;;;;4192212;28;20698;-67
2022/10/20 06:08:08;;;;;;;26.67;14.20;;;11.90;99.90;;;;;;4189834;28;20187;-67
2022/10/20 06:10:09;;;;;;;24.43;14.23;;;11.90;99.90;;;;;;4195450;28;20639;-67
2022/10/20 06:12:09;;;;;;;26.40;12.70;;;11.90;99.90;;;;;;4194436;28;20646;-67
2022/10/20 06:14:10;;;;;;;23.07;12.37;;;12.00;99.90;;;;;;4190104;28;20316;-66
2022/10/20 06:16:19;;;;;;;22.10;12.33;;;11.90;99.90;;;;;;4187012;28;20288;-67
2022/10/20 06:18:19;;;;;;;19.13;11.67;;;11.90;99.90;;;;;;4187519;28;20203;-67
2022/10/20 06:20:20;;;;;;;21.80;11.67;;;11.90;99.90;;;;;;4186197;28;20176;-67
2022/10/20 06:22:21;;;;;;;29.07;14.27;;;12.00;99.90;;;;;;4183331;28;20519;-68
2022/10/20 06:24:21;;;;;;;23.83;13.27;;;12.00;99.90;;;;;;4178888;28;20185;-67
2022/10/20 06:26:23;;;;;;;22.13;12.20;;;12.10;99.90;;;;;;4179095;28;20201;-67
2022/10/20 06:28:24;;;;;;;18.30;10.50;;;12.10;99.90;;;;;;4178799;28;20287;-67
2022/10/20 06:30:24;;;;;;;22.47;9.97;;;12.10;99.90;;;;;;4178416;28;20246;-67
2022/10/20 06:32:25;;;;;;;17.10;9.87;;;12.20;99.90;;;;;;4178519;28;20685;-67
2022/10/20 06:34:26;;;;;;;17.77;9.57;;;12.10;99.90;;;;;;4178843;28;20635;-67
2022/10/20 06:36:27;;;;;;;20.37;11.17;;;12.20;99.90;;;;;;4179214;28;20857;-67
2022/10/20 06:38:28;;;;;;;14.33;9.07;;;12.20;99.90;;;;;;4178636;28;20250;-67
2022/10/20 06:40:28;;;;;;;16.20;8.83;;;12.30;99.90;;;;;;4183851;28;20180;-67
2022/10/20 06:42:29;;;;;;;16.13;9.27;;;12.30;99.90;;;;;;4195249;28;20186;-67
2022/10/20 06:44:30;;;;;;;18.03;10.00;;;12.30;99.90;;;;;;4195217;28;20176;-67
2022/10/20 06:46:34;;;;;;;16.17;9.47;;;12.40;99.90;;;;;;4195078;28;20214;-67
2022/10/20 06:48:35;;;;;;;17.27;9.67;;;12.40;99.90;;;;;;4195263;28;20187;-67
2022/10/20 06:50:35;;;;;;;22.10;13.60;;;12.40;99.90;;;;;;4194721;28;20179;-67
2022/10/20 06:52:36;;;;;;;15.63;9.23;;;12.40;99.90;;;;;;4195496;28;20635;-67
2022/10/20 06:54:36;;;;;;;14.20;8.77;;;12.50;99.90;;;;;;4195330;28;20190;-67
2022/10/20 06:56:38;;;;;;;11.53;8.03;;;12.50;99.90;;;;;;4195365;28;20207;-67
2022/10/20 06:58:41;;;;;;;13.30;7.47;;;12.60;99.90;;;;;;4195374;28;20736;-67
2022/10/20 07:00:41;;;;;;;10.27;7.30;;;12.80;99.90;;;;;;4194374;28;20631;-67
2022/10/20 07:02:42;;;;;;;10.27;6.70;;;12.90;99.90;;;;;;4194871;28;20183;-67
2022/10/20 07:04:42;;;;;;;12.50;7.23;;;12.90;99.90;;;;;;4195045;28;20188;-68
2022/10/20 07:06:44;;;;;;;14.53;7.10;;;13.00;99.90;;;;;;4195069;28;20203;-67
2022/10/20 07:08:46;;;;;;;8.47;6.50;;;13.00;99.90;;;;;;4195063;28;20604;-67
2022/10/20 07:10:51;;;;;;;11.93;7.33;;;13.00;99.90;;;;;;4194392;28;20185;-65
2022/10/20 07:12:52;;;;;;;16.37;7.37;;;13.00;99.90;;;;;;4193590;28;20204;-67
2022/10/20 07:14:53;;;;;;;11.50;7.50;;;13.00;99.90;;;;;;4195019;28;20190;-67
2022/10/20 07:16:53;;;;;;;11.73;7.10;;;13.10;99.90;;;;;;4194738;28;20302;-68
2022/10/20 07:18:56;;;;;;;11.77;7.03;;;13.00;99.90;;;;;;4194868;28;20614;-67
2022/10/20 07:21:06;;;;;;;8.73;5.87;;;13.10;99.90;;;;;;4194136;28;20563;-68
2022/10/20 07:23:06;;;;;;;10.03;5.50;;;13.30;99.90;;;;;;4193575;28;20182;-68
2022/10/20 07:25:07;;;;;;;10.77;6.37;;;13.40;99.90;;;;;;4194917;28;20813;-68
2022/10/20 07:27:08;;;;;;;8.37;5.97;;;13.40;99.90;;;;;;4194653;28;20200;-67
2022/10/20 07:29:09;;;;;;;8.33;6.10;;;13.60;99.90;;;;;;4194844;28;20180;-68
2022/10/20 07:31:17;;;;;;;6.37;4.83;;;13.80;99.90;;;;;;4194246;28;20183;-68
2022/10/20 07:33:17;;;;;;;10.90;5.23;;;14.00;99.90;;;;;;4194962;28;20189;-68
2022/10/20 07:35:18;;;;;;;6.00;5.03;;;14.10;99.90;;;;;;4194986;28;20187;-68
2022/10/20 07:37:19;;;;;;;9.57;5.80;;;14.20;99.90;;;;;;4194902;28;20208;-68
2022/10/20 07:39:20;;;;;;;7.67;5.30;;;14.40;99.90;;;;;;4194877;28;20184;-68
2022/10/20 07:41:20;;;;;;;9.00;6.47;;;14.50;99.90;;;;;;4194407;28;20184;-68
2022/10/20 07:43:21;;;;;;;9.23;5.67;;;14.50;99.90;;;;;;4194710;28;20186;-68
2022/10/20 07:45:22;;;;;;;6.17;4.87;;;14.50;99.90;;;;;;4194913;28;20187;-68
2022/10/20 07:47:22;;;;;;;8.30;5.47;;;14.70;99.90;;;;;;4194896;28;20290;-68
2022/10/20 07:49:23;;;;;;;6.73;4.60;;;14.80;99.90;;;;;;4194588;28;20179;-67
2022/10/20 07:51:29;;;;;;;7.07;4.73;;;14.90;99.90;;;;;;4194191;28;20207;-68
2022/10/20 07:53:30;;;;;;;7.77;4.97;;;15.00;99.90;;;;;;4194632;28;20663;-68
2022/10/20 07:55:33;;;;;;;5.70;4.87;;;15.10;99.90;;;;;;4194697;28;20187;-68
2022/10/20 07:57:34;;;;;;;6.30;4.93;;;15.20;99.90;;;;;;4194775;28;20216;-68
2022/10/20 07:59:34;;;;;;;9.20;4.33;;;15.40;99.90;;;;;;4194591;28;20184;-68
2022/10/20 08:01:35;;;;;;;8.50;4.30;;;15.30;99.90;;;;;;4193881;28;20713;-68
2022/10/20 08:03:36;;;;;;;6.53;4.40;;;15.30;99.90;;;;;;4194538;28;20258;-68
2022/10/20 08:05:37;;;;;;;5.53;4.20;;;15.50;99.90;;;;;;4194592;28;20176;-68
2022/10/20 08:07:38;;;;;;;6.03;3.90;;;15.60;99.90;;;;;;4194865;28;20597;-68
2022/10/20 08:09:38;;;;;;;6.53;4.37;;;15.60;99.90;;;;;;4194586;28;20192;-68
2022/10/20 08:11:39;;;;;;;5.40;3.77;;;15.50;99.90;;;;;;4193991;28;20212;-68
2022/10/20 08:13:40;;;;;;;5.53;4.17;;;15.50;99.90;;;;;;4194662;28;20230;-68
2022/10/20 08:15:41;;;;;;;4.53;3.93;;;15.60;99.90;;;;;;4194595;28;20218;-68
2022/10/20 08:17:41;;;;;;;4.20;3.60;;;15.70;99.90;;;;;;4197706;28;20247;-68
2022/10/20 08:19:42;;;;;;;4.47;3.27;;;15.70;99.90;;;;;;4197838;28;20273;-68
2022/10/20 08:21:43;;;;;;;5.60;3.53;;;15.80;99.90;;;;;;4197029;28;20175;-68
2022/10/20 08:23:46;;;;;;;5.47;3.50;;;15.80;99.90;;;;;;4197604;28;20187;-67
2022/10/20 08:25:47;;;;;;;4.23;3.50;;;16.00;99.90;;;;;;4196336;28;20733;-67
2022/10/20 08:27:47;;;;;;;4.10;3.33;;;16.00;99.90;;;;;;4197441;28;20187;-68
2022/10/20 08:29:48;;;;;;;6.07;3.10;;;16.10;99.90;;;;;;4197356;28;20241;-68
2022/10/20 08:31:49;;;;;;;9.23;3.10;;;16.30;99.90;;;;;;4195288;28;20202;-68
2022/10/20 08:33:50;;;;;;;3.83;2.90;;;16.50;99.90;;;;;;4197260;28;20717;-68
2022/10/20 08:35:50;;;;;;;3.97;2.30;;;16.50;99.90;;;;;;4197199;28;20206;-68
2022/10/20 08:37:51;;;;;;;6.80;2.83;;;16.70;99.90;;;;;;4193598;28;20208;-68
2022/10/20 08:39:52;;;;;;;5.40;2.13;;;17.00;99.90;;;;;;4181261;28;20184;-68
2022/10/20 08:41:53;;;;;;;4.93;3.00;;;17.10;99.80;;;;;;4180120;28;20164;-68
2022/10/20 08:43:56;;;;;;;3.33;2.47;;;17.00;97.50;;;;;;4180374;28;20184;-68
2022/10/20 08:45:58;;;;;;;5.13;2.63;;;17.20;97.50;;;;;;4179361;28;20639;-68
2022/10/20 08:47:59;;;;;;;5.43;2.63;;;17.20;98.30;;;;;;4180424;28;20191;-68
2022/10/20 08:50:03;;;;;;;3.40;2.40;;;17.60;97.60;;;;;;4180389;28;20172;-68
2022/10/20 08:52:10;;;;;;;3.60;2.63;;;17.50;97.30;;;;;;4178501;28;20584;-68
2022/10/20 08:54:15;;;;;;;5.87;2.73;;;17.70;97.10;;;;;;4185976;28;20182;-68
2022/10/20 08:56:26;;;;;;;4.50;2.43;;;17.80;96.50;;;;;;4195373;28;20210;-68
2022/10/20 08:58:27;;;;;;;3.83;2.40;;;17.70;96.50;;;;;;4196753;28;20221;-68
2022/10/20 09:00:30;;;;;;;4.53;2.80;;;17.80;96.50;;;;;;4196065;28;20184;-67
2022/10/20 09:02:33;;;;;;;7.83;2.70;;;17.70;96.60;;;;;;4195628;28;20592;-68
2022/10/20 09:04:41;;;;;;;3.10;2.20;;;17.90;96.70;;;;;;4195493;28;20722;-68
2022/10/20 09:06:46;;;;;;;6.63;3.27;;;18.00;96.00;;;;;;4195691;28;20914;-68
2022/10/20 09:08:47;;;;;;;4.10;2.50;;;18.10;95.40;;;;;;4196539;28;20172;-68
2022/10/20 09:10:53;;;;;;;5.23;2.47;;;18.20;96.60;;;;;;4195856;28;20658;-68
2022/10/20 09:12:54;;;;;;;7.70;3.07;;;17.90;97.00;;;;;;4195263;28;20187;-68
2022/10/20 09:14:56;;;;;;;5.60;2.30;;;17.90;97.30;;;;;;4195183;28;20740;-67
2022/10/20 09:16:56;;;;;;;5.73;2.60;;;17.90;97.50;;;;;;4196762;28;20257;-67
2022/10/20 09:18:59;;;;;;;7.50;2.50;;;17.90;98.20;;;;;;4196280;28;20207;-68
2022/10/20 09:21:09;;;;;;;3.57;2.47;;;17.90;98.70;;;;;;4194363;28;20180;-68
2022/10/20 09:23:15;;;;;;;6.03;3.20;;;17.90;98.90;;;;;;4196325;28;20186;-68
2022/10/20 09:25:22;;;;;;;6.10;2.73;;;18.00;99.20;;;;;;4195089;28;20176;-67
2022/10/20 09:27:34;;;;;;;4.43;2.70;;;17.60;98.70;;;;;;4193865;28;20199;-68
2022/10/20 09:29:37;;;;;;;4.63;2.67;;;17.40;99.40;;;;;;4195256;28;20813;-68
2022/10/20 09:31:52;;;;;;;4.17;2.70;;;17.50;99.90;;;;;;4195658;28;20256;-67
2022/10/20 09:33:53;;;;;;;3.67;3.30;;;17.60;99.80;;;;;;4196488;28;20226;-68
2022/10/20 09:35:59;;;;;;;5.40;3.17;;;17.40;99.90;;;;;;4196250;28;20208;-67
2022/10/20 09:38:09;;;;;;;3.40;2.63;;;17.40;99.90;;;;;;4196162;28;20294;-67
2022/10/20 09:40:14;;;;;;;5.40;3.10;;;17.50;99.90;;;;;;4194495;28;20183;-67
2022/10/20 09:42:24;;;;;;;5.10;2.67;;;17.30;99.60;;;;;;4196096;28;20187;-68
2022/10/20 09:44:24;;;;;;;5.40;3.03;;;17.20;99.90;;;;;;4194925;28;20297;-68
2022/10/20 09:46:29;;;;;;;5.33;2.90;;;17.40;99.90;;;;;;4194887;28;20706;-68
2022/10/20 09:48:46;;;;;;;5.13;2.60;;;17.50;99.90;;;;;;4194670;28;20183;-68
2022/10/20 09:50:54;;;;;;;5.40;2.40;;;17.70;99.40;;;;;;4177629;28;20180;-68
2022/10/20 09:52:55;;;;;;;7.23;3.00;;;17.50;99.90;;;;;;4194685;28;20182;-68
2022/10/20 09:55:05;;;;;;;5.20;2.80;;;17.60;99.90;;;;;;4195998;28;20188;-68
2022/10/20 09:57:18;;;;;;;3.83;2.77;;;17.50;99.80;;;;;;4194481;28;20231;-68
2022/10/20 09:59:21;;;;;;;4.97;2.60;;;17.30;99.90;;;;;;4194532;28;20186;-67
2022/10/20 10:01:22;;;;;;;4.43;2.70;;;17.40;99.90;;;;;;4193828;28;20610;-68
2022/10/20 10:03:24;;;;;;;4.23;2.70;;;17.50;99.90;;;;;;4195788;28;20190;-67
2022/10/20 10:05:32;;;;;;;5.33;2.67;;;17.50;99.90;;;;;;4194207;28;20637;-67
2022/10/20 10:07:33;;;;;;;4.17;2.80;;;17.50;99.90;;;;;;4195625;28;20175;-67
2022/10/20 10:09:37;;;;;;;6.70;3.10;;;17.50;99.90;;;;;;4195558;28;20172;-68
2022/10/20 10:11:37;;;;;;;5.80;3.30;;;17.50;99.50;;;;;;4194034;28;20566;-68
2022/10/20 10:13:43;;;;;;;3.40;3.10;;;17.40;99.90;;;;;;4194214;28;20192;-67
2022/10/20 10:15:44;;;;;;;3.17;2.30;;;17.30;99.90;;;;;;4195352;28;20178;-67
2022/10/20 10:17:44;;;;;;;7.67;3.07;;;17.40;99.90;;;;;;4195385;28;20207;-68
2022/10/20 10:19:47;;;;;;;5.37;2.83;;;17.40;99.90;;;;;;4195356;28;20179;-68
2022/10/20 10:21:56;;;;;;;9.60;3.33;;;17.40;99.90;;;;;;4194770;28;20172;-68
2022/10/20 10:24:02;;;;;;;8.07;3.40;;;17.40;99.90;;;;;;4194088;28;20285;-68
2022/10/20 10:26:45;;;;;;;4.37;3.70;;;17.30;99.90;;;;;;4194128;28;20191;-67
2022/10/20 10:28:57;;;;;;;5.23;3.20;;;17.40;99.90;;;;;;4194068;28;20211;-67